createdAt,value
2023-03-22T00:01:02.680Z,98343.25
2023-03-22T00:03:38.554Z,98348.34
2023-03-22T00:06:18.225Z,98342.25
2023-03-22T00:08:52.250Z,98349.56
2023-03-22T00:11:26.926Z,98352.78
2023-03-22T00:13:58.950Z,98344.69
2023-03-22T00:16:29.188Z,98345.91
2023-03-22T00:19:01.045Z,98341.75
2023-03-22T00:21:31.092Z,98340.09
2023-03-22T00:24:06.893Z,98342.81
2023-03-22T00:26:42.639Z,98337.00
2023-03-22T00:29:15.634Z,98343.13
2023-03-22T00:31:46.485Z,98343.53
2023-03-22T00:34:14.465Z,98340.34
2023-03-22T00:36:51.983Z,98337.97
2023-03-22T00:39:24.969Z,98317.56
2023-03-22T00:41:55.625Z,98332.44
2023-03-22T00:44:29.788Z,98314.81
2023-03-22T00:47:05.490Z,98328.28
2023-03-22T00:49:40.870Z,98329.19
2023-03-22T00:52:11.752Z,98333.28
2023-03-22T00:54:47.920Z,98321.44
2023-03-22T01:00:19.218Z,98306.69
2023-03-22T01:02:53.698Z,98315.84
2023-03-22T01:05:25.890Z,98318.44
2023-03-22T01:07:59.682Z,98305.50
2023-03-22T01:10:42.056Z,98320.63
2023-03-22T01:13:17.976Z,98317.22
2023-03-22T01:15:55.228Z,98301.38
2023-03-22T01:18:29.035Z,98308.28
2023-03-22T01:20:58.697Z,98312.16
2023-03-22T01:23:37.760Z,98299.19
2023-03-22T01:26:09.881Z,98305.72
2023-03-22T01:28:44.641Z,98295.09
2023-03-22T01:31:19.767Z,98307.59
2023-03-22T01:33:51.133Z,98286.81
2023-03-22T01:36:21.821Z,98310.91
2023-03-22T01:38:53.578Z,98301.41
2023-03-22T01:41:25.881Z,98299.94
2023-03-22T01:44:27.156Z,98297.91
2023-03-22T01:47:01.917Z,98311.00
2023-03-22T01:49:45.017Z,98309.09
2023-03-22T01:52:18.186Z,98310.44
2023-03-22T01:55:04.701Z,98310.91
2023-03-22T01:57:42.524Z,98297.78
2023-03-22T02:00:28.497Z,98313.66
2023-03-22T02:03:41.670Z,98312.75
2023-03-22T02:06:19.698Z,98293.03
2023-03-22T02:09:01.611Z,98314.59
2023-03-22T02:11:43.419Z,98303.91
2023-03-22T02:18:13.984Z,98289.75
2023-03-22T02:21:08.027Z,98295.75
2023-03-22T02:24:15.486Z,98297.69
2023-03-22T02:27:18.668Z,98285.13
2023-03-22T02:30:06.652Z,98298.78
2023-03-22T02:33:05.276Z,98294.34
2023-03-22T02:36:24.984Z,98304.53
2023-03-22T02:39:28.233Z,98297.56
2023-03-22T02:42:41.890Z,98301.44
2023-03-22T02:45:23.738Z,98294.56
2023-03-22T02:48:21.611Z,98308.53
2023-03-22T02:51:12.221Z,98303.66
2023-03-22T02:54:15.328Z,98305.84
2023-03-22T02:57:14.805Z,98301.47
2023-03-22T03:00:00.623Z,98305.03
2023-03-22T03:02:38.541Z,98307.97
2023-03-22T03:05:22.514Z,98303.03
2023-03-22T03:07:58.644Z,98312.09
2023-03-22T03:10:51.732Z,98309.91
2023-03-22T03:13:24.332Z,98313.97
2023-03-22T03:16:24.958Z,98306.63
2023-03-22T03:19:15.761Z,98315.44
2023-03-22T03:22:38.646Z,98317.56
2023-03-22T03:25:34.813Z,98328.59
2023-03-22T03:28:39.935Z,98334.28
2023-03-22T03:31:10.409Z,98332.41
2023-03-22T03:33:54.785Z,98332.44
2023-03-22T03:36:40.359Z,98334.88
2023-03-22T03:39:18.460Z,98315.38
2023-03-22T03:42:03.342Z,98331.53
2023-03-22T03:44:38.337Z,98326.94
2023-03-22T03:47:14.577Z,98326.66
2023-03-22T03:49:46.499Z,98306.91
2023-03-22T03:52:32.313Z,98308.25
2023-03-22T03:55:04.142Z,98333.09
2023-03-22T03:57:39.334Z,98328.53
2023-03-22T04:00:17.221Z,98330.72
2023-03-22T04:03:17.102Z,98314.25
2023-03-22T04:06:25.634Z,98330.72
2023-03-22T04:09:04.038Z,98334.28
2023-03-22T04:11:41.123Z,98338.44
2023-03-22T04:14:11.722Z,98336.25
2023-03-22T04:16:45.692Z,98346.88
2023-03-22T04:19:22.108Z,98347.41
2023-03-22T04:21:56.544Z,98349.53
2023-03-22T04:24:29.703Z,98349.31
2023-03-22T04:27:00.037Z,98350.16
2023-03-22T04:29:53.622Z,98352.09
2023-03-22T04:32:43.223Z,98356.50
2023-03-22T04:35:20.910Z,98357.06
2023-03-22T04:37:56.101Z,98340.31
2023-03-22T04:40:28.741Z,98334.25
2023-03-22T04:43:13.748Z,98342.75
2023-03-22T04:46:20.005Z,98341.59
2023-03-22T04:48:59.707Z,98331.19
2023-03-22T04:51:35.066Z,98345.66
2023-03-22T04:54:45.243Z,98345.38
2023-03-22T04:57:16.965Z,98343.44
2023-03-22T04:59:51.761Z,98346.47
2023-03-22T05:02:25.423Z,98350.56
2023-03-22T05:05:01.894Z,98343.69
2023-03-22T05:07:44.588Z,98356.06
2023-03-22T05:13:19.709Z,98360.44
2023-03-22T05:15:52.638Z,98370.06
2023-03-22T05:18:31.440Z,98347.56
2023-03-22T05:21:09.536Z,98358.75
2023-03-22T05:23:46.104Z,98356.47
2023-03-22T05:26:30.544Z,98361.66
2023-03-22T05:29:05.285Z,98359.50
2023-03-22T05:31:58.309Z,98362.38
2023-03-22T05:34:38.770Z,98360.66
2023-03-22T05:37:21.697Z,98372.13
2023-03-22T05:40:10.713Z,98368.97
2023-03-22T05:42:46.046Z,98371.91
2023-03-22T05:45:46.268Z,98371.94
2023-03-22T05:48:36.827Z,98379.72
2023-03-22T05:51:19.813Z,98367.03
2023-03-22T05:53:53.406Z,98385.91
2023-03-22T05:56:29.545Z,98385.03
2023-03-22T05:59:09.237Z,98372.81
2023-03-22T06:01:42.080Z,98383.53
2023-03-22T06:04:37.901Z,98391.19
2023-03-22T06:07:13.356Z,98390.81
2023-03-22T06:09:44.288Z,98393.03
2023-03-22T06:12:30.242Z,98388.25
2023-03-22T06:15:25.718Z,98391.88
2023-03-22T06:18:19.688Z,98392.13
2023-03-22T06:21:05.515Z,98393.59
2023-03-22T06:23:34.349Z,98379.72
2023-03-22T06:28:53.536Z,98387.75
2023-03-22T06:31:24.308Z,98384.06
2023-03-22T06:34:03.421Z,98387.50
2023-03-22T06:36:54.200Z,98385.69
2023-03-22T06:39:35.538Z,98390.78
2023-03-22T06:42:07.120Z,98373.81
2023-03-22T06:44:48.650Z,98381.31
2023-03-22T06:47:28.792Z,98392.69
2023-03-22T06:50:14.281Z,98382.44
2023-03-22T06:53:06.902Z,98387.28
2023-03-22T06:55:46.031Z,98401.22
2023-03-22T06:58:29.475Z,98403.91
2023-03-22T07:01:00.943Z,98402.78
2023-03-22T07:03:31.601Z,98408.34
2023-03-22T07:06:17.287Z,98397.47
2023-03-22T07:08:53.104Z,98410.00
2023-03-22T07:11:37.736Z,98410.34
2023-03-22T07:14:09.685Z,98413.19
2023-03-22T07:17:08.908Z,98401.34
2023-03-22T07:19:44.003Z,98404.69
2023-03-22T07:22:25.510Z,98400.91
2023-03-22T07:25:01.233Z,98409.19
2023-03-22T07:27:39.926Z,98412.94
2023-03-22T07:30:19.139Z,98417.69
2023-03-22T07:32:54.379Z,98412.09
2023-03-22T07:35:27.020Z,98414.13
2023-03-22T07:38:03.776Z,98416.03
2023-03-22T07:40:48.891Z,98408.59
2023-03-22T07:43:25.003Z,98416.72
2023-03-22T07:46:14.688Z,98405.09
2023-03-22T07:49:05.771Z,98417.69
2023-03-22T07:52:04.570Z,98417.97
2023-03-22T07:54:40.573Z,98424.75
2023-03-22T07:57:11.687Z,98419.09
2023-03-22T07:59:54.659Z,98407.47
2023-03-22T08:02:28.081Z,98420.06
2023-03-22T08:05:02.683Z,98419.53
2023-03-22T08:07:39.545Z,98410.81
2023-03-22T08:10:19.912Z,98410.81
2023-03-22T08:12:51.573Z,98413.03
2023-03-22T08:15:34.683Z,98411.78
2023-03-22T08:18:05.264Z,98413.00
2023-03-22T08:20:43.536Z,98405.72
2023-03-22T08:23:28.853Z,98413.31
2023-03-22T08:26:31.411Z,98403.50
2023-03-22T08:29:13.147Z,98417.84
2023-03-22T08:32:05.822Z,98417.06
2023-03-22T08:34:39.103Z,98417.03
2023-03-22T08:37:08.441Z,98417.22
2023-03-22T08:39:39.855Z,98407.81
2023-03-22T08:42:42.856Z,98410.06
2023-03-22T08:45:17.389Z,98405.47
2023-03-22T08:48:03.127Z,98407.03
2023-03-22T08:50:47.652Z,98409.94
2023-03-22T08:53:28.641Z,98405.84
2023-03-22T08:56:27.486Z,98394.75
2023-03-22T08:59:20.963Z,98408.50
2023-03-22T09:02:11.287Z,98406.22
2023-03-22T09:04:42.484Z,98405.69
2023-03-22T09:07:12.776Z,98379.22
2023-03-22T09:09:47.382Z,98394.47
2023-03-22T09:12:22.561Z,98396.59
2023-03-22T09:14:55.837Z,98388.09
2023-03-22T09:17:31.004Z,98384.69
2023-03-22T09:20:28.262Z,98388.94
2023-03-22T09:23:00.255Z,98369.50
2023-03-22T09:25:33.316Z,98381.41
2023-03-22T09:28:04.662Z,98382.56
2023-03-22T09:30:36.395Z,98356.72
2023-03-22T09:33:15.600Z,98369.59
2023-03-22T09:35:54.964Z,98368.53
2023-03-22T09:38:25.661Z,98364.88
2023-03-22T09:41:05.547Z,98365.63
2023-03-22T09:43:46.608Z,98362.31
2023-03-22T09:46:39.261Z,98355.25
2023-03-22T09:49:15.181Z,98358.41
2023-03-22T09:51:54.954Z,98308.66
2023-03-22T09:54:32.526Z,98350.06
2023-03-22T09:57:41.163Z,98344.78
2023-03-22T10:00:23.624Z,98342.84
2023-03-22T10:03:21.381Z,98336.59
2023-03-22T10:06:29.379Z,98317.97
2023-03-22T10:09:41.242Z,98325.19
2023-03-22T10:12:32.789Z,98317.00
2023-03-22T10:15:24.555Z,98311.91
2023-03-22T10:17:57.561Z,98308.31
2023-03-22T10:20:30.896Z,98315.38
2023-03-22T10:23:05.434Z,98310.31
2023-03-22T10:25:40.906Z,98306.13
2023-03-22T10:28:26.597Z,98302.38
2023-03-22T10:31:00.069Z,98299.78
2023-03-22T10:33:53.577Z,98290.16
2023-03-22T10:36:33.044Z,98295.59
2023-03-22T10:39:20.859Z,98291.19
2023-03-22T10:41:52.997Z,98295.53
2023-03-22T10:44:30.800Z,98299.22
2023-03-22T10:47:08.485Z,98283.31
2023-03-22T10:49:57.993Z,98283.38
2023-03-22T10:53:19.940Z,98279.38
2023-03-22T10:55:52.390Z,98270.41
2023-03-22T10:58:30.675Z,98275.69
2023-03-22T11:01:22.656Z,98267.00
2023-03-22T11:03:53.810Z,98265.13
2023-03-22T11:06:36.047Z,98258.41
2023-03-22T11:09:27.985Z,98261.00
2023-03-22T11:12:03.538Z,98248.56
2023-03-22T11:14:45.454Z,98245.31
2023-03-22T11:17:42.286Z,98247.22
2023-03-22T11:20:23.345Z,98240.13
2023-03-22T11:23:03.807Z,98240.03
2023-03-22T11:25:38.408Z,98221.31
2023-03-22T11:28:34.578Z,98230.66
2023-03-22T11:31:14.737Z,98228.97
2023-03-22T11:34:08.266Z,98229.25
2023-03-22T11:39:38.126Z,98215.94
2023-03-22T11:42:15.119Z,98205.31
2023-03-22T11:44:54.117Z,98192.94
2023-03-22T11:47:29.573Z,98176.25
2023-03-22T11:50:00.304Z,98182.28
2023-03-22T11:52:31.467Z,98148.63
2023-03-22T11:55:05.451Z,98182.88
2023-03-22T11:57:41.000Z,98188.47
2023-03-22T12:00:20.781Z,98163.72
2023-03-22T12:03:14.263Z,98174.09
2023-03-22T12:05:45.450Z,98175.88
2023-03-22T12:08:48.910Z,98174.16
2023-03-22T12:11:31.845Z,98161.59
2023-03-22T12:14:37.622Z,98151.38
2023-03-22T12:17:56.211Z,98153.34
2023-03-22T12:20:56.442Z,98108.63
2023-03-22T12:23:39.438Z,98145.38
2023-03-22T12:26:23.630Z,98132.16
2023-03-22T12:29:04.754Z,98124.53
2023-03-22T12:35:05.323Z,98116.09
2023-03-22T12:37:50.379Z,98111.28
2023-03-22T12:40:42.971Z,98093.13
2023-03-22T12:43:27.719Z,98104.75
2023-03-22T12:46:01.809Z,98091.06
2023-03-22T12:48:55.270Z,98100.38
2023-03-22T12:51:28.959Z,98090.69
2023-03-22T12:54:00.786Z,98088.69
2023-03-22T12:56:49.621Z,98086.19
2023-03-22T12:59:28.401Z,98092.31
2023-03-22T13:02:25.466Z,98076.56
2023-03-22T13:05:14.668Z,98071.69
2023-03-22T13:08:02.485Z,98081.81
2023-03-22T13:10:47.571Z,98080.63
2023-03-22T13:13:30.119Z,98075.78
2023-03-22T13:16:25.213Z,98032.22
2023-03-22T13:19:04.019Z,98072.56
2023-03-22T13:21:40.033Z,98069.63
2023-03-22T13:24:10.655Z,98066.50
2023-03-22T13:26:57.518Z,98066.31
2023-03-22T13:29:56.533Z,98045.31
2023-03-22T13:32:40.025Z,98056.69
2023-03-22T13:35:30.319Z,98066.09
2023-03-22T13:38:29.293Z,98062.44
2023-03-22T13:41:32.794Z,98059.88
2023-03-22T13:44:38.019Z,98063.31
2023-03-22T13:47:40.046Z,98057.94
2023-03-22T13:50:37.018Z,98065.69
2023-03-22T13:53:19.563Z,98041.13
2023-03-22T13:59:01.410Z,98048.28
2023-03-22T14:05:09.012Z,98051.19
2023-03-22T14:07:51.679Z,98044.16
2023-03-22T14:10:52.132Z,98036.16
2023-03-22T14:13:53.859Z,98027.91
2023-03-22T14:17:05.212Z,98031.50
2023-03-22T14:19:39.806Z,98028.13
